Arch Rock, Pennsylvania
Current Conditions -  °F | °C
As of 10:53 PM on Friday 19 Dec 2014 (Local Time) from KSEG Reporting Station
Overcast Overcast  
Wind Chill: 25°   Ceiling: 4200
Heat Index: 32°   Visibility: 10mi
Dew Point: 21°   Wind: 8mph
Humidity: 64%   Direction: 300°WNW
Pressure: 30.23"   Gusts: NA
Location:  40.5853°N, 77.3611°W
Report Text: KSEG 200353Z AUTO 30007KT 10SM OVC042 00/M06 A3023 RMK AO2 SLP242 T00001061
Loading
Personal Weather Stations






























Interactive Weather Map New forecast layout! Learn more

10-Day Weather Forecast

Advertisements
Track Severe Weather on mobile